sensor_id;sensor_type;location;lat;lon;timestamp;P1;durP1;ratioP1;P2;durP2;ratioP2
16440;SDS011;8330;-33.858;151.184;2023-04-05T00:01:19;3.33;;;1.13;;
16440;SDS011;8330;-33.858;151.184;2023-04-05T00:03:50;3.63;;;1.08;;
16440;SDS011;8330;-33.858;151.184;2023-04-05T00:06:23;2.70;;;0.98;;
16440;SDS011;8330;-33.858;151.184;2023-04-05T00:08:54;4.97;;;1.10;;
16440;SDS011;8330;-33.858;151.184;2023-04-05T00:11:25;4.57;;;1.08;;
16440;SDS011;8330;-33.858;151.184;2023-04-05T00:14:00;4.55;;;1.25;;
16440;SDS011;8330;-33.858;151.184;2023-04-05T00:16:31;3.08;;;1.20;;
16440;SDS011;8330;-33.858;151.184;2023-04-05T00:19:02;2.85;;;1.00;;
16440;SDS011;8330;-33.858;151.184;2023-04-05T00:21:34;3.50;;;1.17;;
16440;SDS011;8330;-33.858;151.184;2023-04-05T00:24:05;3.35;;;1.17;;
16440;SDS011;8330;-33.858;151.184;2023-04-05T00:26:41;4.22;;;1.15;;
16440;SDS011;8330;-33.858;151.184;2023-04-05T00:29:14;5.70;;;1.00;;
16440;SDS011;8330;-33.858;151.184;2023-04-05T00:31:45;6.32;;;1.23;;
16440;SDS011;8330;-33.858;151.184;2023-04-05T00:34:16;5.63;;;1.23;;
16440;SDS011;8330;-33.858;151.184;2023-04-05T00:36:47;3.20;;;1.00;;
16440;SDS011;8330;-33.858;151.184;2023-04-05T00:39:19;3.10;;;0.90;;
16440;SDS011;8330;-33.858;151.184;2023-04-05T00:41:50;4.28;;;0.85;;
16440;SDS011;8330;-33.858;151.184;2023-04-05T00:44:23;6.43;;;1.15;;
16440;SDS011;8330;-33.858;151.184;2023-04-05T00:46:54;5.63;;;1.60;;
16440;SDS011;8330;-33.858;151.184;2023-04-05T00:49:25;4.90;;;1.00;;
16440;SDS011;8330;-33.858;151.184;2023-04-05T00:51:58;5.13;;;1.17;;
16440;SDS011;8330;-33.858;151.184;2023-04-05T00:54:29;2.80;;;0.90;;
16440;SDS011;8330;-33.858;151.184;2023-04-05T00:57:01;3.72;;;1.10;;
16440;SDS011;8330;-33.858;151.184;2023-04-05T00:59:34;4.90;;;1.17;;
16440;SDS011;8330;-33.858;151.184;2023-04-05T01:02:07;4.72;;;1.02;;
16440;SDS011;8330;-33.858;151.184;2023-04-05T01:04:45;3.50;;;0.88;;
16440;SDS011;8330;-33.858;151.184;2023-04-05T01:07:22;4.90;;;1.17;;
16440;SDS011;8330;-33.858;151.184;2023-04-05T01:09:58;8.95;;;1.48;;
16440;SDS011;8330;-33.858;151.184;2023-04-05T01:12:31;4.45;;;0.90;;
16440;SDS011;8330;-33.858;151.184;2023-04-05T01:15:05;6.32;;;1.10;;
16440;SDS011;8330;-33.858;151.184;2023-04-05T01:17:37;3.85;;;1.00;;
16440;SDS011;8330;-33.858;151.184;2023-04-05T01:20:10;4.60;;;1.10;;
16440;SDS011;8330;-33.858;151.184;2023-04-05T01:28:51;4.57;;;1.00;;
16440;SDS011;8330;-33.858;151.184;2023-04-05T01:31:36;7.72;;;1.40;;
16440;SDS011;8330;-33.858;151.184;2023-04-05T01:34:15;4.60;;;1.00;;
16440;SDS011;8330;-33.858;151.184;2023-04-05T01:36:54;4.13;;;1.13;;
16440;SDS011;8330;-33.858;151.184;2023-04-05T01:39:30;5.47;;;1.20;;
16440;SDS011;8330;-33.858;151.184;2023-04-05T01:42:03;7.53;;;1.10;;
16440;SDS011;8330;-33.858;151.184;2023-04-05T01:44:45;7.82;;;1.00;;
16440;SDS011;8330;-33.858;151.184;2023-04-05T01:47:18;6.55;;;1.27;;
16440;SDS011;8330;-33.858;151.184;2023-04-05T01:49:49;4.63;;;0.85;;
16440;SDS011;8330;-33.858;151.184;2023-04-05T01:52:20;3.25;;;0.90;;
16440;SDS011;8330;-33.858;151.184;2023-04-05T01:54:52;6.22;;;1.27;;
16440;SDS011;8330;-33.858;151.184;2023-04-05T01:57:23;4.03;;;1.00;;
16440;SDS011;8330;-33.858;151.184;2023-04-05T01:59:54;3.10;;;0.80;;
16440;SDS011;8330;-33.858;151.184;2023-04-05T02:02:29;5.40;;;1.08;;
16440;SDS011;8330;-33.858;151.184;2023-04-05T02:05:01;4.85;;;1.23;;
16440;SDS011;8330;-33.858;151.184;2023-04-05T02:07:32;2.90;;;0.73;;
16440;SDS011;8330;-33.858;151.184;2023-04-05T02:10:05;2.55;;;0.90;;
16440;SDS011;8330;-33.858;151.184;2023-04-05T02:12:37;5.60;;;1.02;;
16440;SDS011;8330;-33.858;151.184;2023-04-05T02:15:08;2.20;;;0.90;;
16440;SDS011;8330;-33.858;151.184;2023-04-05T02:17:42;1.95;;;0.70;;
16440;SDS011;8330;-33.858;151.184;2023-04-05T02:20:13;5.63;;;1.38;;
16440;SDS011;8330;-33.858;151.184;2023-04-05T02:22:44;5.97;;;0.85;;
16440;SDS011;8330;-33.858;151.184;2023-04-05T02:25:17;4.93;;;1.10;;
16440;SDS011;8330;-33.858;151.184;2023-04-05T02:27:48;6.40;;;0.90;;
16440;SDS011;8330;-33.858;151.184;2023-04-05T02:30:19;3.78;;;1.20;;
16440;SDS011;8330;-33.858;151.184;2023-04-05T02:32:52;3.97;;;0.90;;
16440;SDS011;8330;-33.858;151.184;2023-04-05T02:35:23;1.77;;;0.50;;
16440;SDS011;8330;-33.858;151.184;2023-04-05T02:37:54;2.35;;;0.70;;
16440;SDS011;8330;-33.858;151.184;2023-04-05T02:40:27;2.08;;;0.80;;
16440;SDS011;8330;-33.858;151.184;2023-04-05T02:42:58;3.08;;;1.35;;
16440;SDS011;8330;-33.858;151.184;2023-04-05T02:45:29;3.53;;;0.90;;
16440;SDS011;8330;-33.858;151.184;2023-04-05T02:48:02;3.15;;;0.88;;
16440;SDS011;8330;-33.858;151.184;2023-04-05T02:50:33;2.05;;;0.65;;
16440;SDS011;8330;-33.858;151.184;2023-04-05T02:53:03;5.65;;;0.93;;
16440;SDS011;8330;-33.858;151.184;2023-04-05T02:55:34;3.45;;;0.98;;
16440;SDS011;8330;-33.858;151.184;2023-04-05T02:58:07;2.95;;;0.95;;
16440;SDS011;8330;-33.858;151.184;2023-04-05T03:00:39;6.82;;;1.00;;
16440;SDS011;8330;-33.858;151.184;2023-04-05T03:03:11;3.63;;;1.05;;
16440;SDS011;8330;-33.858;151.184;2023-04-05T03:05:42;4.60;;;1.10;;
16440;SDS011;8330;-33.858;151.184;2023-04-05T03:08:14;4.07;;;1.10;;
16440;SDS011;8330;-33.858;151.184;2023-04-05T03:10:50;4.00;;;1.23;;
16440;SDS011;8330;-33.858;151.184;2023-04-05T03:13:20;3.80;;;1.00;;
16440;SDS011;8330;-33.858;151.184;2023-04-05T03:15:52;4.45;;;0.95;;
16440;SDS011;8330;-33.858;151.184;2023-04-05T03:18:25;3.97;;;0.85;;
16440;SDS011;8330;-33.858;151.184;2023-04-05T03:20:57;4.55;;;0.93;;
16440;SDS011;8330;-33.858;151.184;2023-04-05T03:23:29;4.70;;;1.00;;
16440;SDS011;8330;-33.858;151.184;2023-04-05T03:26:01;8.38;;;1.65;;
16440;SDS011;8330;-33.858;151.184;2023-04-05T03:28:32;5.50;;;1.08;;
16440;SDS011;8330;-33.858;151.184;2023-04-05T03:31:04;5.35;;;0.95;;
16440;SDS011;8330;-33.858;151.184;2023-04-05T03:33:37;5.70;;;1.15;;
16440;SDS011;8330;-33.858;151.184;2023-04-05T03:36:08;5.55;;;1.25;;
16440;SDS011;8330;-33.858;151.184;2023-04-05T03:38:43;2.85;;;0.80;;
16440;SDS011;8330;-33.858;151.184;2023-04-05T03:41:14;3.08;;;1.05;;
16440;SDS011;8330;-33.858;151.184;2023-04-05T03:43:46;7.20;;;1.15;;
16440;SDS011;8330;-33.858;151.184;2023-04-05T03:46:17;6.28;;;1.35;;
16440;SDS011;8330;-33.858;151.184;2023-04-05T03:48:50;4.20;;;1.00;;
16440;SDS011;8330;-33.858;151.184;2023-04-05T03:51:21;4.43;;;0.90;;
16440;SDS011;8330;-33.858;151.184;2023-04-05T03:53:53;3.80;;;0.90;;
16440;SDS011;8330;-33.858;151.184;2023-04-05T03:56:25;9.43;;;1.40;;
16440;SDS011;8330;-33.858;151.184;2023-04-05T03:59:00;5.20;;;0.90;;
16440;SDS011;8330;-33.858;151.184;2023-04-05T04:01:31;5.97;;;1.25;;
16440;SDS011;8330;-33.858;151.184;2023-04-05T04:04:04;4.82;;;0.93;;
16440;SDS011;8330;-33.858;151.184;2023-04-05T04:06:35;3.60;;;0.73;;
16440;SDS011;8330;-33.858;151.184;2023-04-05T04:09:07;5.07;;;0.95;;
16440;SDS011;8330;-33.858;151.184;2023-04-05T04:11:38;3.65;;;0.90;;
16440;SDS011;8330;-33.858;151.184;2023-04-05T04:14:09;4.57;;;0.60;;
16440;SDS011;8330;-33.858;151.184;2023-04-05T04:16:40;5.35;;;1.05;;
16440;SDS011;8330;-33.858;151.184;2023-04-05T04:19:14;3.58;;;0.82;;
16440;SDS011;8330;-33.858;151.184;2023-04-05T04:21:46;4.38;;;1.00;;
16440;SDS011;8330;-33.858;151.184;2023-04-05T04:24:18;7.10;;;1.10;;
16440;SDS011;8330;-33.858;151.184;2023-04-05T04:26:52;4.75;;;1.15;;
16440;SDS011;8330;-33.858;151.184;2023-04-05T04:29:23;5.88;;;0.98;;
16440;SDS011;8330;-33.858;151.184;2023-04-05T04:31:56;3.00;;;1.00;;
16440;SDS011;8330;-33.858;151.184;2023-04-05T04:34:29;5.22;;;0.95;;
16440;SDS011;8330;-33.858;151.184;2023-04-05T04:37:03;4.35;;;1.08;;
16440;SDS011;8330;-33.858;151.184;2023-04-05T04:39:34;2.92;;;0.80;;
16440;SDS011;8330;-33.858;151.184;2023-04-05T04:42:09;2.55;;;0.50;;
16440;SDS011;8330;-33.858;151.184;2023-04-05T04:44:45;4.30;;;0.88;;
16440;SDS011;8330;-33.858;151.184;2023-04-05T04:47:16;4.82;;;0.80;;
16440;SDS011;8330;-33.858;151.184;2023-04-05T04:49:50;4.03;;;0.93;;
16440;SDS011;8330;-33.858;151.184;2023-04-05T04:52:22;2.85;;;0.88;;
16440;SDS011;8330;-33.858;151.184;2023-04-05T04:54:53;2.15;;;0.80;;
16440;SDS011;8330;-33.858;151.184;2023-04-05T04:57:24;2.95;;;0.80;;
16440;SDS011;8330;-33.858;151.184;2023-04-05T04:59:55;2.65;;;0.77;;
16440;SDS011;8330;-33.858;151.184;2023-04-05T05:02:26;4.28;;;0.77;;
16440;SDS011;8330;-33.858;151.184;2023-04-05T05:04:59;2.50;;;0.70;;
16440;SDS011;8330;-33.858;151.184;2023-04-05T05:07:31;2.58;;;0.70;;
16440;SDS011;8330;-33.858;151.184;2023-04-05T05:10:02;2.05;;;0.80;;
16440;SDS011;8330;-33.858;151.184;2023-04-05T05:12:34;3.30;;;0.82;;
16440;SDS011;8330;-33.858;151.184;2023-04-05T05:15:06;4.55;;;0.70;;
16440;SDS011;8330;-33.858;151.184;2023-04-05T05:17:38;1.73;;;0.50;;
16440;SDS011;8330;-33.858;151.184;2023-04-05T05:20:12;2.05;;;0.65;;
16440;SDS011;8330;-33.858;151.184;2023-04-05T05:22:43;1.88;;;0.70;;
16440;SDS011;8330;-33.858;151.184;2023-04-05T05:25:14;3.08;;;0.68;;
16440;SDS011;8330;-33.858;151.184;2023-04-05T05:27:47;2.70;;;0.68;;
16440;SDS011;8330;-33.858;151.184;2023-04-05T05:30:19;3.92;;;0.80;;
16440;SDS011;8330;-33.858;151.184;2023-04-05T05:32:50;2.72;;;0.70;;
16440;SDS011;8330;-33.858;151.184;2023-04-05T05:35:25;3.90;;;0.70;;
16440;SDS011;8330;-33.858;151.184;2023-04-05T05:37:56;2.40;;;0.60;;
16440;SDS011;8330;-33.858;151.184;2023-04-05T05:40:28;3.67;;;0.70;;
16440;SDS011;8330;-33.858;151.184;2023-04-05T05:42:59;3.95;;;0.90;;
16440;SDS011;8330;-33.858;151.184;2023-04-05T05:45:30;5.82;;;1.05;;
16440;SDS011;8330;-33.858;151.184;2023-04-05T05:48:01;3.30;;;0.60;;
16440;SDS011;8330;-33.858;151.184;2023-04-05T05:50:34;1.90;;;0.60;;
16440;SDS011;8330;-33.858;151.184;2023-04-05T05:53:07;3.38;;;0.70;;
16440;SDS011;8330;-33.858;151.184;2023-04-05T05:55:38;4.95;;;0.77;;
16440;SDS011;8330;-33.858;151.184;2023-04-05T05:58:09;3.65;;;0.80;;
16440;SDS011;8330;-33.858;151.184;2023-04-05T06:00:40;3.45;;;0.60;;
16440;SDS011;8330;-33.858;151.184;2023-04-05T06:03:12;4.18;;;0.60;;
16440;SDS011;8330;-33.858;151.184;2023-04-05T06:05:51;1.77;;;0.60;;
16440;SDS011;8330;-33.858;151.184;2023-04-05T06:08:23;3.28;;;0.52;;
16440;SDS011;8330;-33.858;151.184;2023-04-05T06:10:55;0.85;;;0.40;;
16440;SDS011;8330;-33.858;151.184;2023-04-05T06:13:26;2.85;;;0.75;;
16440;SDS011;8330;-33.858;151.184;2023-04-05T06:15:58;2.22;;;0.50;;
16440;SDS011;8330;-33.858;151.184;2023-04-05T06:18:30;1.58;;;0.50;;
16440;SDS011;8330;-33.858;151.184;2023-04-05T06:21:03;1.27;;;0.38;;
16440;SDS011;8330;-33.858;151.184;2023-04-05T06:23:34;2.35;;;0.57;;
16440;SDS011;8330;-33.858;151.184;2023-04-05T06:26:07;4.18;;;0.70;;
16440;SDS011;8330;-33.858;151.184;2023-04-05T06:28:44;4.15;;;0.80;;
16440;SDS011;8330;-33.858;151.184;2023-04-05T06:31:15;1.90;;;0.60;;
16440;SDS011;8330;-33.858;151.184;2023-04-05T06:33:48;2.38;;;0.57;;
16440;SDS011;8330;-33.858;151.184;2023-04-05T06:36:22;3.70;;;0.75;;
16440;SDS011;8330;-33.858;151.184;2023-04-05T06:38:53;1.92;;;0.60;;
16440;SDS011;8330;-33.858;151.184;2023-04-05T06:41:24;5.05;;;0.98;;
16440;SDS011;8330;-33.858;151.184;2023-04-05T06:43:56;3.53;;;0.93;;
16440;SDS011;8330;-33.858;151.184;2023-04-05T06:46:27;3.90;;;0.73;;
16440;SDS011;8330;-33.858;151.184;2023-04-05T06:48:58;2.75;;;0.57;;
16440;SDS011;8330;-33.858;151.184;2023-04-05T06:51:33;3.80;;;0.70;;
16440;SDS011;8330;-33.858;151.184;2023-04-05T06:54:04;4.38;;;0.77;;
16440;SDS011;8330;-33.858;151.184;2023-04-05T06:56:36;2.20;;;0.70;;
16440;SDS011;8330;-33.858;151.184;2023-04-05T06:59:07;5.82;;;0.95;;
16440;SDS011;8330;-33.858;151.184;2023-04-05T07:01:38;3.13;;;0.50;;
16440;SDS011;8330;-33.858;151.184;2023-04-05T07:04:09;2.67;;;0.70;;
16440;SDS011;8330;-33.858;151.184;2023-04-05T07:06:42;2.72;;;0.60;;
16440;SDS011;8330;-33.858;151.184;2023-04-05T07:09:16;3.17;;;0.55;;
16440;SDS011;8330;-33.858;151.184;2023-04-05T07:11:49;2.20;;;0.52;;
16440;SDS011;8330;-33.858;151.184;2023-04-05T07:14:20;2.25;;;0.70;;
16440;SDS011;8330;-33.858;151.184;2023-04-05T07:16:51;1.23;;;0.50;;
16440;SDS011;8330;-33.858;151.184;2023-04-05T07:19:22;2.97;;;0.82;;
16440;SDS011;8330;-33.858;151.184;2023-04-05T07:21:55;3.25;;;0.95;;
16440;SDS011;8330;-33.858;151.184;2023-04-05T07:24:27;3.03;;;0.82;;
16440;SDS011;8330;-33.858;151.184;2023-04-05T07:26:58;3.22;;;0.70;;
16440;SDS011;8330;-33.858;151.184;2023-04-05T07:29:29;3.42;;;0.82;;
16440;SDS011;8330;-33.858;151.184;2023-04-05T07:32:05;2.85;;;0.60;;
16440;SDS011;8330;-33.858;151.184;2023-04-05T07:34:36;1.90;;;0.70;;
16440;SDS011;8330;-33.858;151.184;2023-04-05T07:37:09;2.28;;;0.60;;
16440;SDS011;8330;-33.858;151.184;2023-04-05T07:39:41;2.63;;;0.70;;
16440;SDS011;8330;-33.858;151.184;2023-04-05T07:42:12;1.48;;;0.60;;
16440;SDS011;8330;-33.858;151.184;2023-04-05T07:44:43;3.08;;;0.73;;
16440;SDS011;8330;-33.858;151.184;2023-04-05T07:47:14;1.98;;;0.70;;
16440;SDS011;8330;-33.858;151.184;2023-04-05T07:49:45;2.60;;;0.70;;
16440;SDS011;8330;-33.858;151.184;2023-04-05T07:52:19;2.20;;;0.70;;
16440;SDS011;8330;-33.858;151.184;2023-04-05T07:54:50;1.25;;;0.52;;
16440;SDS011;8330;-33.858;151.184;2023-04-05T07:57:21;2.15;;;0.63;;
16440;SDS011;8330;-33.858;151.184;2023-04-05T07:59:52;2.65;;;0.95;;
16440;SDS011;8330;-33.858;151.184;2023-04-05T08:02:23;2.92;;;1.20;;
16440;SDS011;8330;-33.858;151.184;2023-04-05T08:04:54;4.97;;;1.55;;
16440;SDS011;8330;-33.858;151.184;2023-04-05T08:07:27;3.58;;;2.13;;
16440;SDS011;8330;-33.858;151.184;2023-04-05T08:09:58;2.65;;;1.00;;
16440;SDS011;8330;-33.858;151.184;2023-04-05T08:12:30;2.05;;;0.80;;
16440;SDS011;8330;-33.858;151.184;2023-04-05T08:15:02;1.92;;;0.80;;
16440;SDS011;8330;-33.858;151.184;2023-04-05T08:17:33;3.33;;;0.90;;
16440;SDS011;8330;-33.858;151.184;2023-04-05T08:20:05;3.40;;;0.80;;
16440;SDS011;8330;-33.858;151.184;2023-04-05T08:22:38;5.53;;;1.30;;
16440;SDS011;8330;-33.858;151.184;2023-04-05T08:25:09;3.20;;;1.02;;
16440;SDS011;8330;-33.858;151.184;2023-04-05T08:27:40;4.60;;;1.15;;
16440;SDS011;8330;-33.858;151.184;2023-04-05T08:30:12;3.05;;;1.10;;
16440;SDS011;8330;-33.858;151.184;2023-04-05T08:32:45;6.00;;;1.83;;
16440;SDS011;8330;-33.858;151.184;2023-04-05T08:35:16;4.22;;;1.48;;
16440;SDS011;8330;-33.858;151.184;2023-04-05T08:37:50;3.45;;;1.23;;
16440;SDS011;8330;-33.858;151.184;2023-04-05T08:40:22;3.85;;;1.52;;
16440;SDS011;8330;-33.858;151.184;2023-04-05T08:43:06;5.65;;;1.70;;
16440;SDS011;8330;-33.858;151.184;2023-04-05T08:45:43;4.45;;;1.45;;
16440;SDS011;8330;-33.858;151.184;2023-04-05T08:48:17;4.10;;;1.70;;
16440;SDS011;8330;-33.858;151.184;2023-04-05T08:50:49;5.50;;;1.80;;
16440;SDS011;8330;-33.858;151.184;2023-04-05T08:53:22;4.70;;;1.80;;
16440;SDS011;8330;-33.858;151.184;2023-04-05T08:55:55;4.65;;;1.75;;
16440;SDS011;8330;-33.858;151.184;2023-04-05T08:58:28;5.22;;;1.90;;
16440;SDS011;8330;-33.858;151.184;2023-04-05T09:01:02;7.95;;;1.85;;
16440;SDS011;8330;-33.858;151.184;2023-04-05T09:03:35;4.63;;;1.80;;
16440;SDS011;8330;-33.858;151.184;2023-04-05T09:06:12;4.72;;;1.52;;
16440;SDS011;8330;-33.858;151.184;2023-04-05T09:08:45;4.90;;;1.50;;
16440;SDS011;8330;-33.858;151.184;2023-04-05T09:11:17;4.47;;;1.80;;
16440;SDS011;8330;-33.858;151.184;2023-04-05T09:13:50;5.38;;;1.95;;
16440;SDS011;8330;-33.858;151.184;2023-04-05T09:16:21;5.38;;;1.77;;
16440;SDS011;8330;-33.858;151.184;2023-04-05T09:18:54;5.32;;;1.73;;
16440;SDS011;8330;-33.858;151.184;2023-04-05T09:21:26;5.85;;;1.77;;
16440;SDS011;8330;-33.858;151.184;2023-04-05T09:23:59;6.78;;;1.90;;
16440;SDS011;8330;-33.858;151.184;2023-04-05T09:26:30;5.53;;;1.92;;
16440;SDS011;8330;-33.858;151.184;2023-04-05T09:29:02;5.53;;;2.03;;
16440;SDS011;8330;-33.858;151.184;2023-04-05T09:31:33;5.60;;;1.92;;
16440;SDS011;8330;-33.858;151.184;2023-04-05T09:34:05;5.07;;;1.90;;
16440;SDS011;8330;-33.858;151.184;2023-04-05T09:36:36;5.40;;;2.10;;
16440;SDS011;8330;-33.858;151.184;2023-04-05T09:39:15;5.32;;;2.55;;
16440;SDS011;8330;-33.858;151.184;2023-04-05T09:42:02;6.50;;;2.63;;
16440;SDS011;8330;-33.858;151.184;2023-04-05T09:47:27;7.18;;;2.25;;
16440;SDS011;8330;-33.858;151.184;2023-04-05T09:50:00;6.05;;;2.28;;
16440;SDS011;8330;-33.858;151.184;2023-04-05T09:52:32;6.18;;;2.22;;
16440;SDS011;8330;-33.858;151.184;2023-04-05T09:55:06;5.45;;;2.00;;
16440;SDS011;8330;-33.858;151.184;2023-04-05T09:57:38;5.00;;;1.88;;
16440;SDS011;8330;-33.858;151.184;2023-04-05T10:00:16;6.03;;;2.45;;
16440;SDS011;8330;-33.858;151.184;2023-04-05T10:02:52;4.63;;;2.10;;
16440;SDS011;8330;-33.858;151.184;2023-04-05T10:05:24;4.18;;;1.83;;
16440;SDS011;8330;-33.858;151.184;2023-04-05T10:07:59;5.50;;;1.80;;
16440;SDS011;8330;-33.858;151.184;2023-04-05T10:10:34;3.90;;;1.80;;
16440;SDS011;8330;-33.858;151.184;2023-04-05T10:13:14;4.80;;;1.88;;
16440;SDS011;8330;-33.858;151.184;2023-04-05T10:15:46;4.63;;;1.85;;
16440;SDS011;8330;-33.858;151.184;2023-04-05T10:18:20;4.30;;;1.70;;
16440;SDS011;8330;-33.858;151.184;2023-04-05T10:20:57;4.90;;;1.92;;
16440;SDS011;8330;-33.858;151.184;2023-04-05T10:23:30;8.15;;;2.20;;
16440;SDS011;8330;-33.858;151.184;2023-04-05T10:26:07;6.68;;;1.92;;
16440;SDS011;8330;-33.858;151.184;2023-04-05T10:28:42;6.38;;;2.15;;
16440;SDS011;8330;-33.858;151.184;2023-04-05T10:31:17;5.90;;;1.85;;
16440;SDS011;8330;-33.858;151.184;2023-04-05T10:33:54;5.47;;;1.70;;
16440;SDS011;8330;-33.858;151.184;2023-04-05T10:36:30;7.05;;;1.90;;
16440;SDS011;8330;-33.858;151.184;2023-04-05T10:39:08;6.82;;;2.17;;
16440;SDS011;8330;-33.858;151.184;2023-04-05T10:41:47;6.38;;;2.50;;
16440;SDS011;8330;-33.858;151.184;2023-04-05T10:44:23;5.47;;;2.30;;
16440;SDS011;8330;-33.858;151.184;2023-04-05T10:46:54;6.68;;;2.47;;
16440;SDS011;8330;-33.858;151.184;2023-04-05T10:49:28;7.68;;;2.75;;
16440;SDS011;8330;-33.858;151.184;2023-04-05T10:52:05;8.10;;;2.72;;
16440;SDS011;8330;-33.858;151.184;2023-04-05T10:54:40;10.45;;;3.58;;
16440;SDS011;8330;-33.858;151.184;2023-04-05T10:57:13;8.65;;;3.00;;
16440;SDS011;8330;-33.858;151.184;2023-04-05T10:59:47;11.70;;;2.97;;
16440;SDS011;8330;-33.858;151.184;2023-04-05T11:02:20;7.75;;;2.63;;
16440;SDS011;8330;-33.858;151.184;2023-04-05T11:04:52;8.55;;;2.65;;
16440;SDS011;8330;-33.858;151.184;2023-04-05T11:07:24;6.68;;;2.45;;
16440;SDS011;8330;-33.858;151.184;2023-04-05T11:10:13;6.88;;;2.40;;
16440;SDS011;8330;-33.858;151.184;2023-04-05T11:13:04;9.10;;;2.63;;
16440;SDS011;8330;-33.858;151.184;2023-04-05T11:15:37;6.57;;;2.30;;
16440;SDS011;8330;-33.858;151.184;2023-04-05T11:18:09;5.97;;;2.38;;
16440;SDS011;8330;-33.858;151.184;2023-04-05T11:20:51;8.18;;;2.47;;
16440;SDS011;8330;-33.858;151.184;2023-04-05T11:23:22;5.82;;;2.20;;
16440;SDS011;8330;-33.858;151.184;2023-04-05T11:25:54;8.70;;;2.03;;
16440;SDS011;8330;-33.858;151.184;2023-04-05T11:28:35;7.82;;;2.13;;
16440;SDS011;8330;-33.858;151.184;2023-04-05T11:31:11;7.20;;;2.90;;
16440;SDS011;8330;-33.858;151.184;2023-04-05T11:33:53;5.80;;;2.50;;
16440;SDS011;8330;-33.858;151.184;2023-04-05T11:36:38;5.57;;;2.22;;
16440;SDS011;8330;-33.858;151.184;2023-04-05T11:39:24;5.70;;;2.17;;
16440;SDS011;8330;-33.858;151.184;2023-04-05T11:41:57;5.43;;;2.13;;
16440;SDS011;8330;-33.858;151.184;2023-04-05T11:44:38;6.30;;;2.13;;
16440;SDS011;8330;-33.858;151.184;2023-04-05T11:47:10;6.22;;;1.90;;
16440;SDS011;8330;-33.858;151.184;2023-04-05T11:49:42;7.22;;;2.40;;
16440;SDS011;8330;-33.858;151.184;2023-04-05T11:52:17;4.93;;;1.85;;
16440;SDS011;8330;-33.858;151.184;2023-04-05T11:54:49;6.97;;;2.20;;
16440;SDS011;8330;-33.858;151.184;2023-04-05T11:57:20;4.45;;;1.88;;
16440;SDS011;8330;-33.858;151.184;2023-04-05T11:59:54;7.88;;;2.25;;
16440;SDS011;8330;-33.858;151.184;2023-04-05T12:02:25;4.55;;;1.90;;
16440;SDS011;8330;-33.858;151.184;2023-04-05T12:04:58;4.47;;;1.67;;
16440;SDS011;8330;-33.858;151.184;2023-04-05T12:07:29;5.20;;;1.50;;
16440;SDS011;8330;-33.858;151.184;2023-04-05T12:10:03;5.50;;;1.98;;
16440;SDS011;8330;-33.858;151.184;2023-04-05T12:12:37;5.30;;;1.88;;
16440;SDS011;8330;-33.858;151.184;2023-04-05T12:15:11;3.55;;;1.35;;
16440;SDS011;8330;-33.858;151.184;2023-04-05T12:17:44;3.92;;;1.50;;
16440;SDS011;8330;-33.858;151.184;2023-04-05T12:20:17;5.25;;;1.83;;
16440;SDS011;8330;-33.858;151.184;2023-04-05T12:22:50;5.60;;;1.80;;
16440;SDS011;8330;-33.858;151.184;2023-04-05T12:25:22;5.07;;;1.92;;
16440;SDS011;8330;-33.858;151.184;2023-04-05T12:27:54;4.70;;;1.58;;
16440;SDS011;8330;-33.858;151.184;2023-04-05T12:30:27;5.53;;;1.90;;
16440;SDS011;8330;-33.858;151.184;2023-04-05T12:33:06;4.38;;;1.58;;
16440;SDS011;8330;-33.858;151.184;2023-04-05T12:35:37;5.85;;;1.90;;
16440;SDS011;8330;-33.858;151.184;2023-04-05T12:38:08;8.60;;;1.50;;
16440;SDS011;8330;-33.858;151.184;2023-04-05T12:40:43;5.22;;;1.60;;
16440;SDS011;8330;-33.858;151.184;2023-04-05T12:43:14;5.05;;;1.70;;
16440;SDS011;8330;-33.858;151.184;2023-04-05T12:45:47;4.50;;;1.50;;
16440;SDS011;8330;-33.858;151.184;2023-04-05T12:48:22;5.07;;;1.70;;
16440;SDS011;8330;-33.858;151.184;2023-04-05T12:50:53;7.38;;;1.60;;
16440;SDS011;8330;-33.858;151.184;2023-04-05T12:53:25;4.40;;;1.50;;
16440;SDS011;8330;-33.858;151.184;2023-04-05T12:55:58;5.53;;;1.58;;
16440;SDS011;8330;-33.858;151.184;2023-04-05T12:58:33;4.32;;;1.70;;
16440;SDS011;8330;-33.858;151.184;2023-04-05T13:01:07;3.22;;;1.45;;
16440;SDS011;8330;-33.858;151.184;2023-04-05T13:03:38;3.67;;;1.40;;
16440;SDS011;8330;-33.858;151.184;2023-04-05T13:06:11;5.47;;;1.73;;
16440;SDS011;8330;-33.858;151.184;2023-04-05T13:08:42;4.55;;;1.70;;
16440;SDS011;8330;-33.858;151.184;2023-04-05T13:11:15;6.00;;;2.00;;
16440;SDS011;8330;-33.858;151.184;2023-04-05T13:13:46;4.40;;;1.52;;
16440;SDS011;8330;-33.858;151.184;2023-04-05T13:16:19;6.22;;;1.90;;
16440;SDS011;8330;-33.858;151.184;2023-04-05T13:18:51;5.03;;;2.00;;
16440;SDS011;8330;-33.858;151.184;2023-04-05T13:21:22;6.57;;;2.05;;
16440;SDS011;8330;-33.858;151.184;2023-04-05T13:23:53;8.07;;;1.80;;
16440;SDS011;8330;-33.858;151.184;2023-04-05T13:26:24;3.92;;;1.90;;
16440;SDS011;8330;-33.858;151.184;2023-04-05T13:28:55;6.38;;;1.80;;
16440;SDS011;8330;-33.858;151.184;2023-04-05T13:31:29;6.25;;;2.10;;
16440;SDS011;8330;-33.858;151.184;2023-04-05T13:34:00;7.20;;;1.88;;
16440;SDS011;8330;-33.858;151.184;2023-04-05T13:36:32;5.00;;;1.70;;
16440;SDS011;8330;-33.858;151.184;2023-04-05T13:39:03;7.40;;;2.25;;
16440;SDS011;8330;-33.858;151.184;2023-04-05T13:41:34;6.35;;;1.90;;
16440;SDS011;8330;-33.858;151.184;2023-04-05T13:44:06;9.40;;;2.40;;
16440;SDS011;8330;-33.858;151.184;2023-04-05T13:46:39;7.15;;;1.80;;
16440;SDS011;8330;-33.858;151.184;2023-04-05T13:49:10;7.07;;;1.73;;
16440;SDS011;8330;-33.858;151.184;2023-04-05T13:51:41;5.63;;;1.70;;
16440;SDS011;8330;-33.858;151.184;2023-04-05T13:54:12;3.42;;;1.60;;
16440;SDS011;8330;-33.858;151.184;2023-04-05T13:56:44;6.50;;;2.08;;
16440;SDS011;8330;-33.858;151.184;2023-04-05T13:59:15;3.95;;;1.60;;
16440;SDS011;8330;-33.858;151.184;2023-04-05T14:01:48;4.03;;;1.67;;
16440;SDS011;8330;-33.858;151.184;2023-04-05T14:04:20;5.22;;;1.73;;
16440;SDS011;8330;-33.858;151.184;2023-04-05T14:06:51;4.63;;;1.63;;
16440;SDS011;8330;-33.858;151.184;2023-04-05T14:09:22;3.83;;;1.60;;
16440;SDS011;8330;-33.858;151.184;2023-04-05T14:11:54;5.18;;;1.77;;
16440;SDS011;8330;-33.858;151.184;2023-04-05T14:14:26;3.83;;;1.80;;
16440;SDS011;8330;-33.858;151.184;2023-04-05T14:17:00;4.25;;;1.70;;
16440;SDS011;8330;-33.858;151.184;2023-04-05T14:19:32;4.60;;;1.92;;
16440;SDS011;8330;-33.858;151.184;2023-04-05T14:22:03;8.30;;;1.90;;
16440;SDS011;8330;-33.858;151.184;2023-04-05T14:24:34;3.15;;;1.40;;
16440;SDS011;8330;-33.858;151.184;2023-04-05T14:27:06;3.22;;;1.70;;
16440;SDS011;8330;-33.858;151.184;2023-04-05T14:29:37;4.45;;;1.50;;
16440;SDS011;8330;-33.858;151.184;2023-04-05T14:32:11;3.22;;;1.67;;
16440;SDS011;8330;-33.858;151.184;2023-04-05T14:34:42;6.97;;;1.90;;
16440;SDS011;8330;-33.858;151.184;2023-04-05T14:37:13;5.25;;;1.60;;
16440;SDS011;8330;-33.858;151.184;2023-04-05T14:39:45;3.45;;;1.95;;
16440;SDS011;8330;-33.858;151.184;2023-04-05T14:42:16;4.65;;;1.70;;
16440;SDS011;8330;-33.858;151.184;2023-04-05T14:44:48;5.10;;;1.75;;
16440;SDS011;8330;-33.858;151.184;2023-04-05T14:47:21;5.30;;;1.67;;
16440;SDS011;8330;-33.858;151.184;2023-04-05T14:49:52;4.50;;;1.50;;
16440;SDS011;8330;-33.858;151.184;2023-04-05T14:52:23;3.50;;;1.60;;
16440;SDS011;8330;-33.858;151.184;2023-04-05T14:54:54;5.53;;;1.88;;
16440;SDS011;8330;-33.858;151.184;2023-04-05T14:57:25;5.88;;;1.90;;
16440;SDS011;8330;-33.858;151.184;2023-04-05T14:59:56;5.53;;;1.77;;
16440;SDS011;8330;-33.858;151.184;2023-04-05T15:02:30;6.90;;;2.17;;